sensor_id;sensor_type;location;lat;lon;timestamp;temperature;humidity
47757;SHT35;22147;52.388;13.390;2022-10-16T00:01:40;14.05;94.16
47757;SHT35;22147;52.388;13.390;2022-10-16T00:04:09;14.12;94.14
47757;SHT35;22147;52.388;13.390;2022-10-16T00:06:37;14.10;94.04
47757;SHT35;22147;52.388;13.390;2022-10-16T00:09:06;14.10;93.95
47757;SHT35;22147;52.388;13.390;2022-10-16T00:11:37;14.12;93.92
47757;SHT35;22147;52.388;13.390;2022-10-16T00:14:12;14.12;93.84
47757;SHT35;22147;52.388;13.390;2022-10-16T00:16:41;14.13;93.86
47757;SHT35;22147;52.388;13.390;2022-10-16T00:19:11;14.28;93.98
47757;SHT35;22147;52.388;13.390;2022-10-16T00:21:39;14.31;93.54
47757;SHT35;22147;52.388;13.390;2022-10-16T00:24:09;14.37;93.42
47757;SHT35;22147;52.388;13.390;2022-10-16T00:26:39;14.41;93.33
47757;SHT35;22147;52.388;13.390;2022-10-16T00:29:07;14.42;93.21
47757;SHT35;22147;52.388;13.390;2022-10-16T00:31:35;14.47;93.15
47757;SHT35;22147;52.388;13.390;2022-10-16T00:34:02;14.47;93.06
47757;SHT35;22147;52.388;13.390;2022-10-16T00:36:29;14.48;93.03
47757;SHT35;22147;52.388;13.390;2022-10-16T00:38:58;14.54;92.99
47757;SHT35;22147;52.388;13.390;2022-10-16T00:41:47;14.55;92.81
47757;SHT35;22147;52.388;13.390;2022-10-16T00:47:42;14.58;92.55
47757;SHT35;22147;52.388;13.390;2022-10-16T00:50:27;14.61;92.39
47757;SHT35;22147;52.388;13.390;2022-10-16T00:53:00;14.61;92.33
47757;SHT35;22147;52.388;13.390;2022-10-16T00:55:28;14.55;92.33
47757;SHT35;22147;52.388;13.390;2022-10-16T00:57:58;14.55;92.37
47757;SHT35;22147;52.388;13.390;2022-10-16T01:00:27;14.50;92.38
47757;SHT35;22147;52.388;13.390;2022-10-16T01:02:59;14.51;92.39
47757;SHT35;22147;52.388;13.390;2022-10-16T01:05:51;14.47;92.32
47757;SHT35;22147;52.388;13.390;2022-10-16T01:11:57;14.40;92.51
47757;SHT35;22147;52.388;13.390;2022-10-16T01:14:58;14.42;92.58
47757;SHT35;22147;52.388;13.390;2022-10-16T01:20:35;14.33;92.64
47757;SHT35;22147;52.388;13.390;2022-10-16T01:23:21;14.36;92.72
47757;SHT35;22147;52.388;13.390;2022-10-16T01:33:20;14.20;92.64
47757;SHT35;22147;52.388;13.390;2022-10-16T01:35:59;14.14;92.81
47757;SHT35;22147;52.388;13.390;2022-10-16T01:38:38;14.12;92.84
47757;SHT35;22147;52.388;13.390;2022-10-16T01:41:19;13.99;92.88
47757;SHT35;22147;52.388;13.390;2022-10-16T01:44:25;13.99;93.09
47757;SHT35;22147;52.388;13.390;2022-10-16T01:46:55;13.98;93.23
47757;SHT35;22147;52.388;13.390;2022-10-16T01:49:34;14.02;93.43
47757;SHT35;22147;52.388;13.390;2022-10-16T01:52:12;13.98;93.36
47757;SHT35;22147;52.388;13.390;2022-10-16T01:54:46;13.92;93.43
47757;SHT35;22147;52.388;13.390;2022-10-16T01:57:18;13.98;93.53
47757;SHT35;22147;52.388;13.390;2022-10-16T01:59:57;14.09;93.71
47757;SHT35;22147;52.388;13.390;2022-10-16T02:02:30;14.16;93.74
47757;SHT35;22147;52.388;13.390;2022-10-16T02:05:26;14.20;93.75
47757;SHT35;22147;52.388;13.390;2022-10-16T02:07:55;14.23;93.70
47757;SHT35;22147;52.388;13.390;2022-10-16T02:10:26;14.26;93.53
47757;SHT35;22147;52.388;13.390;2022-10-16T02:13:15;14.28;93.46
47757;SHT35;22147;52.388;13.390;2022-10-16T02:15:43;14.30;93.39
47757;SHT35;22147;52.388;13.390;2022-10-16T02:18:11;14.30;93.37
47757;SHT35;22147;52.388;13.390;2022-10-16T02:21:14;14.31;93.26
47757;SHT35;22147;52.388;13.390;2022-10-16T02:26:57;14.37;93.07
47757;SHT35;22147;52.388;13.390;2022-10-16T02:29:28;14.41;93.02
47757;SHT35;22147;52.388;13.390;2022-10-16T02:32:06;14.42;92.91
47757;SHT35;22147;52.388;13.390;2022-10-16T02:34:36;14.37;92.84
47757;SHT35;22147;52.388;13.390;2022-10-16T02:37:06;14.33;92.82
47757;SHT35;22147;52.388;13.390;2022-10-16T02:39:34;14.31;92.95
47757;SHT35;22147;52.388;13.390;2022-10-16T02:42:02;14.34;92.99
47757;SHT35;22147;52.388;13.390;2022-10-16T02:44:29;14.31;92.98
47757;SHT35;22147;52.388;13.390;2022-10-16T02:46:56;14.30;93.08
47757;SHT35;22147;52.388;13.390;2022-10-16T02:49:23;14.30;93.07
47757;SHT35;22147;52.388;13.390;2022-10-16T02:51:50;14.26;93.03
47757;SHT35;22147;52.388;13.390;2022-10-16T02:54:17;14.24;92.97
47757;SHT35;22147;52.388;13.390;2022-10-16T02:56:44;14.21;92.94
47757;SHT35;22147;52.388;13.390;2022-10-16T02:59:11;14.19;92.95
47757;SHT35;22147;52.388;13.390;2022-10-16T03:01:38;14.13;92.95
47757;SHT35;22147;52.388;13.390;2022-10-16T03:04:05;14.07;92.94
47757;SHT35;22147;52.388;13.390;2022-10-16T03:06:32;14.02;92.98
47757;SHT35;22147;52.388;13.390;2022-10-16T03:08:59;13.95;92.94
47757;SHT35;22147;52.388;13.390;2022-10-16T03:11:26;13.90;92.99
47757;SHT35;22147;52.388;13.390;2022-10-16T03:13:54;13.88;93.09
47757;SHT35;22147;52.388;13.390;2022-10-16T03:16:21;13.83;93.15
47757;SHT35;22147;52.388;13.390;2022-10-16T03:18:49;13.82;93.25
47757;SHT35;22147;52.388;13.390;2022-10-16T03:21:17;13.81;93.26
47757;SHT35;22147;52.388;13.390;2022-10-16T03:23:43;13.82;93.26
47757;SHT35;22147;52.388;13.390;2022-10-16T03:26:10;13.81;93.40
47757;SHT35;22147;52.388;13.390;2022-10-16T03:28:37;13.81;93.42
47757;SHT35;22147;52.388;13.390;2022-10-16T03:31:05;13.76;93.50
47757;SHT35;22147;52.388;13.390;2022-10-16T03:33:32;13.76;93.54
47757;SHT35;22147;52.388;13.390;2022-10-16T03:35:59;13.70;93.64
47757;SHT35;22147;52.388;13.390;2022-10-16T03:38:26;13.66;93.64
47757;SHT35;22147;52.388;13.390;2022-10-16T03:40:53;13.63;93.73
47757;SHT35;22147;52.388;13.390;2022-10-16T03:43:20;13.61;93.73
47757;SHT35;22147;52.388;13.390;2022-10-16T03:45:47;13.57;93.79
47757;SHT35;22147;52.388;13.390;2022-10-16T03:48:14;13.54;93.82
47757;SHT35;22147;52.388;13.390;2022-10-16T03:50:41;13.55;93.89
47757;SHT35;22147;52.388;13.390;2022-10-16T03:53:07;13.51;93.89
47757;SHT35;22147;52.388;13.390;2022-10-16T03:55:35;13.44;93.93
47757;SHT35;22147;52.388;13.390;2022-10-16T03:58:02;13.47;94.01
47757;SHT35;22147;52.388;13.390;2022-10-16T04:00:29;13.49;94.17
47757;SHT35;22147;52.388;13.390;2022-10-16T04:02:56;13.41;94.20
47757;SHT35;22147;52.388;13.390;2022-10-16T04:05:23;13.44;94.21
47757;SHT35;22147;52.388;13.390;2022-10-16T04:07:50;13.41;94.27
47757;SHT35;22147;52.388;13.390;2022-10-16T04:10:17;13.37;94.27
47757;SHT35;22147;52.388;13.390;2022-10-16T04:12:44;13.41;94.39
47757;SHT35;22147;52.388;13.390;2022-10-16T04:15:11;13.44;94.44
47757;SHT35;22147;52.388;13.390;2022-10-16T04:17:38;13.45;94.47
47757;SHT35;22147;52.388;13.390;2022-10-16T04:20:06;13.51;94.51
47757;SHT35;22147;52.388;13.390;2022-10-16T04:22:33;13.51;94.51
47757;SHT35;22147;52.388;13.390;2022-10-16T04:25:00;13.51;94.44
47757;SHT35;22147;52.388;13.390;2022-10-16T04:27:27;13.48;94.44
47757;SHT35;22147;52.388;13.390;2022-10-16T04:29:55;13.48;94.40
47757;SHT35;22147;52.388;13.390;2022-10-16T04:32:22;13.47;94.35
47757;SHT35;22147;52.388;13.390;2022-10-16T04:34:49;13.47;94.39
47757;SHT35;22147;52.388;13.390;2022-10-16T04:37:16;13.44;94.32
47757;SHT35;22147;52.388;13.390;2022-10-16T04:39:43;13.47;94.41
47757;SHT35;22147;52.388;13.390;2022-10-16T04:42:12;13.45;94.34
47757;SHT35;22147;52.388;13.390;2022-10-16T04:44:39;13.47;94.30
47757;SHT35;22147;52.388;13.390;2022-10-16T04:47:06;13.44;94.31
47757;SHT35;22147;52.388;13.390;2022-10-16T04:49:33;13.45;94.27
47757;SHT35;22147;52.388;13.390;2022-10-16T04:52:00;13.47;94.32
47757;SHT35;22147;52.388;13.390;2022-10-16T04:54:27;13.41;94.26
47757;SHT35;22147;52.388;13.390;2022-10-16T04:56:55;13.38;94.23
47757;SHT35;22147;52.388;13.390;2022-10-16T04:59:23;13.31;94.21
47757;SHT35;22147;52.388;13.390;2022-10-16T05:01:50;13.24;94.19
47757;SHT35;22147;52.388;13.390;2022-10-16T05:04:17;13.23;94.26
47757;SHT35;22147;52.388;13.390;2022-10-16T05:06:44;13.16;94.24
47757;SHT35;22147;52.388;13.390;2022-10-16T05:09:11;13.13;94.29
47757;SHT35;22147;52.388;13.390;2022-10-16T05:11:38;13.10;94.33
47757;SHT35;22147;52.388;13.390;2022-10-16T05:14:05;13.06;94.34
47757;SHT35;22147;52.388;13.390;2022-10-16T05:16:32;13.06;94.44
47757;SHT35;22147;52.388;13.390;2022-10-16T05:18:59;13.04;94.45
47757;SHT35;22147;52.388;13.390;2022-10-16T05:21:46;13.00;94.44
47757;SHT35;22147;52.388;13.390;2022-10-16T05:24:13;12.97;94.57
47757;SHT35;22147;52.388;13.390;2022-10-16T05:26:40;13.07;94.69
47757;SHT35;22147;52.388;13.390;2022-10-16T05:29:08;13.14;94.76
47757;SHT35;22147;52.388;13.390;2022-10-16T05:31:35;13.20;94.75
47757;SHT35;22147;52.388;13.390;2022-10-16T05:34:02;13.19;94.83
47757;SHT35;22147;52.388;13.390;2022-10-16T05:36:29;13.23;94.76
47757;SHT35;22147;52.388;13.390;2022-10-16T05:38:56;13.23;94.87
47757;SHT35;22147;52.388;13.390;2022-10-16T05:41:23;13.23;94.87
47757;SHT35;22147;52.388;13.390;2022-10-16T05:43:53;13.23;94.88
47757;SHT35;22147;52.388;13.390;2022-10-16T05:46:20;13.21;94.87
47757;SHT35;22147;52.388;13.390;2022-10-16T05:48:47;13.23;94.93
47757;SHT35;22147;52.388;13.390;2022-10-16T05:51:15;13.26;94.94
47757;SHT35;22147;52.388;13.390;2022-10-16T05:53:42;13.32;95.05
47757;SHT35;22147;52.388;13.390;2022-10-16T05:56:11;13.44;95.06
47757;SHT35;22147;52.388;13.390;2022-10-16T05:58:41;13.51;95.09
47757;SHT35;22147;52.388;13.390;2022-10-16T06:01:18;13.61;95.08
47757;SHT35;22147;52.388;13.390;2022-10-16T06:03:46;13.63;94.99
47757;SHT35;22147;52.388;13.390;2022-10-16T06:06:25;13.65;94.96
47757;SHT35;22147;52.388;13.390;2022-10-16T06:08:56;13.66;94.93
47757;SHT35;22147;52.388;13.390;2022-10-16T06:11:31;13.72;94.83
47757;SHT35;22147;52.388;13.390;2022-10-16T06:14:01;13.75;94.73
47757;SHT35;22147;52.388;13.390;2022-10-16T06:16:36;13.82;94.67
47757;SHT35;22147;52.388;13.390;2022-10-16T06:19:04;13.90;94.68
47757;SHT35;22147;52.388;13.390;2022-10-16T06:21:33;14.00;94.59
47757;SHT35;22147;52.388;13.390;2022-10-16T06:24:00;14.02;94.45
47757;SHT35;22147;52.388;13.390;2022-10-16T06:26:30;14.09;94.34
47757;SHT35;22147;52.388;13.390;2022-10-16T06:29:00;14.10;94.22
47757;SHT35;22147;52.388;13.390;2022-10-16T06:31:29;14.16;94.14
47757;SHT35;22147;52.388;13.390;2022-10-16T06:33:58;14.19;93.95
47757;SHT35;22147;52.388;13.390;2022-10-16T06:36:26;14.21;93.87
47757;SHT35;22147;52.388;13.390;2022-10-16T06:38:54;14.23;93.71
47757;SHT35;22147;52.388;13.390;2022-10-16T06:41:23;14.24;93.54
47757;SHT35;22147;52.388;13.390;2022-10-16T06:43:50;14.26;93.41
47757;SHT35;22147;52.388;13.390;2022-10-16T06:46:24;14.31;93.39
47757;SHT35;22147;52.388;13.390;2022-10-16T06:48:52;14.37;93.38
47757;SHT35;22147;52.388;13.390;2022-10-16T06:51:24;14.37;93.31
47757;SHT35;22147;52.388;13.390;2022-10-16T06:53:55;14.40;93.35
47757;SHT35;22147;52.388;13.390;2022-10-16T06:56:32;14.45;93.38
47757;SHT35;22147;52.388;13.390;2022-10-16T06:59:00;14.51;93.40
47757;SHT35;22147;52.388;13.390;2022-10-16T07:01:28;14.54;93.32
47757;SHT35;22147;52.388;13.390;2022-10-16T07:03:55;14.63;93.30
47757;SHT35;22147;52.388;13.390;2022-10-16T07:06:26;14.75;93.29
47757;SHT35;22147;52.388;13.390;2022-10-16T07:08:54;14.91;93.10
47757;SHT35;22147;52.388;13.390;2022-10-16T07:11:23;15.09;92.60
47757;SHT35;22147;52.388;13.390;2022-10-16T07:13:52;15.27;91.91
47757;SHT35;22147;52.388;13.390;2022-10-16T07:16:27;15.44;91.18
47757;SHT35;22147;52.388;13.390;2022-10-16T07:18:59;15.67;90.25
47757;SHT35;22147;52.388;13.390;2022-10-16T07:21:32;15.81;89.77
47757;SHT35;22147;52.388;13.390;2022-10-16T07:24:13;16.08;88.57
47757;SHT35;22147;52.388;13.390;2022-10-16T07:26:44;16.37;87.75
47757;SHT35;22147;52.388;13.390;2022-10-16T07:29:21;16.51;87.42
47757;SHT35;22147;52.388;13.390;2022-10-16T07:31:49;16.64;86.99
47757;SHT35;22147;52.388;13.390;2022-10-16T07:34:21;16.67;86.51
47757;SHT35;22147;52.388;13.390;2022-10-16T07:36:50;16.80;86.00
47757;SHT35;22147;52.388;13.390;2022-10-16T07:39:18;16.94;85.83
47757;SHT35;22147;52.388;13.390;2022-10-16T07:41:45;16.81;85.86
47757;SHT35;22147;52.388;13.390;2022-10-16T07:44:12;16.69;86.43
47757;SHT35;22147;52.388;13.390;2022-10-16T07:46:39;16.71;86.19
47757;SHT35;22147;52.388;13.390;2022-10-16T07:49:06;16.80;86.83
47757;SHT35;22147;52.388;13.390;2022-10-16T07:51:33;16.74;86.54
47757;SHT35;22147;52.388;13.390;2022-10-16T07:54:00;16.74;86.51
47757;SHT35;22147;52.388;13.390;2022-10-16T07:56:27;16.81;86.79
47757;SHT35;22147;52.388;13.390;2022-10-16T07:58:54;16.84;86.49
47757;SHT35;22147;52.388;13.390;2022-10-16T08:01:24;16.83;86.59
47757;SHT35;22147;52.388;13.390;2022-10-16T08:03:52;16.95;85.91
47757;SHT35;22147;52.388;13.390;2022-10-16T08:06:22;16.91;86.17
47757;SHT35;22147;52.388;13.390;2022-10-16T08:08:56;16.97;86.27
47757;SHT35;22147;52.388;13.390;2022-10-16T08:11:23;16.88;86.22
47757;SHT35;22147;52.388;13.390;2022-10-16T08:13:50;16.80;86.83
47757;SHT35;22147;52.388;13.390;2022-10-16T08:16:18;16.85;86.62
47757;SHT35;22147;52.388;13.390;2022-10-16T08:18:45;16.79;86.68
47757;SHT35;22147;52.388;13.390;2022-10-16T08:21:18;16.97;86.80
47757;SHT35;22147;52.388;13.390;2022-10-16T08:23:48;17.07;86.01
47757;SHT35;22147;52.388;13.390;2022-10-16T08:26:23;17.24;85.53
47757;SHT35;22147;52.388;13.390;2022-10-16T08:28:50;17.36;85.38
47757;SHT35;22147;52.388;13.390;2022-10-16T08:31:20;17.43;84.85
47757;SHT35;22147;52.388;13.390;2022-10-16T08:33:47;17.31;84.45
47757;SHT35;22147;52.388;13.390;2022-10-16T08:36:17;17.56;84.90
47757;SHT35;22147;52.388;13.390;2022-10-16T08:38:48;17.66;83.19
47757;SHT35;22147;52.388;13.390;2022-10-16T08:47:25;17.70;83.05
47757;SHT35;22147;52.388;13.390;2022-10-16T08:50:11;17.56;83.46
47757;SHT35;22147;52.388;13.390;2022-10-16T08:52:44;17.59;83.40
47757;SHT35;22147;52.388;13.390;2022-10-16T08:56:03;17.71;82.69
47757;SHT35;22147;52.388;13.390;2022-10-16T08:58:30;17.63;82.98
47757;SHT35;22147;52.388;13.390;2022-10-16T09:01:04;17.56;83.50
47757;SHT35;22147;52.388;13.390;2022-10-16T09:07:05;17.67;82.98
47757;SHT35;22147;52.388;13.390;2022-10-16T09:13:36;17.81;81.96
47757;SHT35;22147;52.388;13.390;2022-10-16T09:16:34;17.88;82.02
47757;SHT35;22147;52.388;13.390;2022-10-16T09:19:40;17.96;81.16
47757;SHT35;22147;52.388;13.390;2022-10-16T09:22:16;18.11;80.94
47757;SHT35;22147;52.388;13.390;2022-10-16T09:24:43;18.22;80.74
47757;SHT35;22147;52.388;13.390;2022-10-16T09:27:14;18.03;79.51
47757;SHT35;22147;52.388;13.390;2022-10-16T09:29:41;17.88;80.60
47757;SHT35;22147;52.388;13.390;2022-10-16T09:32:19;17.88;80.29
47757;SHT35;22147;52.388;13.390;2022-10-16T09:34:56;18.04;81.02
47757;SHT35;22147;52.388;13.390;2022-10-16T09:37:25;18.06;80.50
47757;SHT35;22147;52.388;13.390;2022-10-16T09:39:54;18.18;80.25
47757;SHT35;22147;52.388;13.390;2022-10-16T09:42:31;18.31;78.75
47757;SHT35;22147;52.388;13.390;2022-10-16T09:44:59;18.38;79.05
47757;SHT35;22147;52.388;13.390;2022-10-16T09:47:30;18.57;79.42
47757;SHT35;22147;52.388;13.390;2022-10-16T09:50:24;18.41;77.88
47757;SHT35;22147;52.388;13.390;2022-10-16T09:53:23;18.28;77.80
47757;SHT35;22147;52.388;13.390;2022-10-16T09:55:53;18.21;78.62
47757;SHT35;22147;52.388;13.390;2022-10-16T09:58:23;18.28;79.44
47757;SHT35;22147;52.388;13.390;2022-10-16T10:00:54;18.42;80.04
47757;SHT35;22147;52.388;13.390;2022-10-16T10:03:39;18.53;78.53
47757;SHT35;22147;52.388;13.390;2022-10-16T10:06:25;18.92;77.68
47757;SHT35;22147;52.388;13.390;2022-10-16T10:11:44;19.38;74.96
47757;SHT35;22147;52.388;13.390;2022-10-16T10:14:47;19.92;74.38
47757;SHT35;22147;52.388;13.390;2022-10-16T10:17:23;19.96;72.60
47757;SHT35;22147;52.388;13.390;2022-10-16T10:25:15;19.57;73.17
47757;SHT35;22147;52.388;13.390;2022-10-16T10:31:04;19.18;73.68
47757;SHT35;22147;52.388;13.390;2022-10-16T10:37:42;19.40;72.41
47757;SHT35;22147;52.388;13.390;2022-10-16T10:40:48;19.08;71.87
47757;SHT35;22147;52.388;13.390;2022-10-16T10:49:48;19.24;71.40
47757;SHT35;22147;52.388;13.390;2022-10-16T10:55:51;19.44;71.22
47757;SHT35;22147;52.388;13.390;2022-10-16T11:01:48;19.38;69.90
47757;SHT35;22147;52.388;13.390;2022-10-16T11:13:48;19.37;71.43
47757;SHT35;22147;52.388;13.390;2022-10-16T11:16:51;19.50;70.74
47757;SHT35;22147;52.388;13.390;2022-10-16T11:22:41;19.94;69.40
47757;SHT35;22147;52.388;13.390;2022-10-16T11:25:27;19.96;69.75
47757;SHT35;22147;52.388;13.390;2022-10-16T11:28:25;19.98;68.42
47757;SHT35;22147;52.388;13.390;2022-10-16T11:31:38;20.21;67.90
47757;SHT35;22147;52.388;13.390;2022-10-16T11:37:19;19.94;68.42
47757;SHT35;22147;52.388;13.390;2022-10-16T11:39:59;20.27;67.05
47757;SHT35;22147;52.388;13.390;2022-10-16T11:42:46;20.44;67.04
47757;SHT35;22147;52.388;13.390;2022-10-16T11:46:01;20.45;65.55
47757;SHT35;22147;52.388;13.390;2022-10-16T11:48:57;20.51;65.55
47757;SHT35;22147;52.388;13.390;2022-10-16T11:51:59;20.65;63.97
47757;SHT35;22147;52.388;13.390;2022-10-16T11:55:04;20.47;63.65
47757;SHT35;22147;52.388;13.390;2022-10-16T11:57:51;20.37;64.02
47757;SHT35;22147;52.388;13.390;2022-10-16T12:00:31;20.20;64.51
47757;SHT35;22147;52.388;13.390;2022-10-16T12:06:37;20.36;63.72
47757;SHT35;22147;52.388;13.390;2022-10-16T12:09:27;20.23;62.76
47757;SHT35;22147;52.388;13.390;2022-10-16T12:11:56;20.23;62.84
47757;SHT35;22147;52.388;13.390;2022-10-16T12:14:39;20.16;62.98
47757;SHT35;22147;52.388;13.390;2022-10-16T12:17:38;20.10;65.17
47757;SHT35;22147;52.388;13.390;2022-10-16T12:25:37;19.93;64.63
47757;SHT35;22147;52.388;13.390;2022-10-16T12:28:20;20.05;64.46
47757;SHT35;22147;52.388;13.390;2022-10-16T12:31:01;20.10;64.74
47757;SHT35;22147;52.388;13.390;2022-10-16T12:33:35;20.24;64.53
47757;SHT35;22147;52.388;13.390;2022-10-16T12:36:16;20.34;65.29
47757;SHT35;22147;52.388;13.390;2022-10-16T12:38:54;20.43;63.91
47757;SHT35;22147;52.388;13.390;2022-10-16T12:41:30;20.50;64.69
47757;SHT35;22147;52.388;13.390;2022-10-16T12:44:00;20.44;62.60
47757;SHT35;22147;52.388;13.390;2022-10-16T12:51:43;20.95;61.78
47757;SHT35;22147;52.388;13.390;2022-10-16T12:54:27;21.25;60.11
47757;SHT35;22147;52.388;13.390;2022-10-16T13:03:35;21.00;60.94
47757;SHT35;22147;52.388;13.390;2022-10-16T13:09:17;20.58;61.52
47757;SHT35;22147;52.388;13.390;2022-10-16T13:18:29;20.20;62.25
47757;SHT35;22147;52.388;13.390;2022-10-16T13:28:05;20.51;59.76
47757;SHT35;22147;52.388;13.390;2022-10-16T13:30:53;20.38;60.89
47757;SHT35;22147;52.388;13.390;2022-10-16T13:33:49;20.38;60.58
47757;SHT35;22147;52.388;13.390;2022-10-16T13:36:43;20.47;60.21
47757;SHT35;22147;52.388;13.390;2022-10-16T13:39:28;20.61;60.10
47757;SHT35;22147;52.388;13.390;2022-10-16T13:42:18;20.45;59.28
47757;SHT35;22147;52.388;13.390;2022-10-16T13:44:54;20.57;59.00
47757;SHT35;22147;52.388;13.390;2022-10-16T13:47:28;20.85;59.65
47757;SHT35;22147;52.388;13.390;2022-10-16T13:50:12;21.03;58.73
47757;SHT35;22147;52.388;13.390;2022-10-16T13:52:39;21.14;58.18
47757;SHT35;22147;52.388;13.390;2022-10-16T13:55:17;21.30;58.21
47757;SHT35;22147;52.388;13.390;2022-10-16T13:57:45;21.36;58.57
47757;SHT35;22147;52.388;13.390;2022-10-16T14:00:28;21.06;59.83
47757;SHT35;22147;52.388;13.390;2022-10-16T14:03:16;20.77;60.17
47757;SHT35;22147;52.388;13.390;2022-10-16T14:06:02;20.72;59.90
47757;SHT35;22147;52.388;13.390;2022-10-16T14:08:31;20.78;60.38
47757;SHT35;22147;52.388;13.390;2022-10-16T14:11:01;20.85;60.37
47757;SHT35;22147;52.388;13.390;2022-10-16T14:13:43;20.94;61.12
47757;SHT35;22147;52.388;13.390;2022-10-16T14:16:27;20.84;60.05
47757;SHT35;22147;52.388;13.390;2022-10-16T14:19:02;20.64;59.76
47757;SHT35;22147;52.388;13.390;2022-10-16T14:21:30;20.54;61.06
47757;SHT35;22147;52.388;13.390;2022-10-16T14:23:59;20.37;61.31
47757;SHT35;22147;52.388;13.390;2022-10-16T14:26:28;20.08;61.32
47757;SHT35;22147;52.388;13.390;2022-10-16T14:29:14;19.93;63.36
47757;SHT35;22147;52.388;13.390;2022-10-16T14:31:42;19.86;63.42
47757;SHT35;22147;52.388;13.390;2022-10-16T14:34:36;19.69;63.21
47757;SHT35;22147;52.388;13.390;2022-10-16T14:37:27;19.57;63.28
47757;SHT35;22147;52.388;13.390;2022-10-16T14:39:57;19.61;63.60
47757;SHT35;22147;52.388;13.390;2022-10-16T14:42:25;19.51;63.96
47757;SHT35;22147;52.388;13.390;2022-10-16T14:44:55;19.50;64.18
47757;SHT35;22147;52.388;13.390;2022-10-16T14:47:26;19.41;64.61
47757;SHT35;22147;52.388;13.390;2022-10-16T14:49:55;19.34;64.40
47757;SHT35;22147;52.388;13.390;2022-10-16T14:52:24;19.28;64.34
47757;SHT35;22147;52.388;13.390;2022-10-16T14:54:51;19.23;64.72
47757;SHT35;22147;52.388;13.390;2022-10-16T14:57:31;19.21;64.55
47757;SHT35;22147;52.388;13.390;2022-10-16T15:00:00;19.17;64.39
47757;SHT35;22147;52.388;13.390;2022-10-16T15:02:35;19.14;64.88
47757;SHT35;22147;52.388;13.390;2022-10-16T15:05:20;19.07;64.02
47757;SHT35;22147;52.388;13.390;2022-10-16T15:07:53;18.99;65.14
47757;SHT35;22147;52.388;13.390;2022-10-16T15:10:26;18.89;65.20
47757;SHT35;22147;52.388;13.390;2022-10-16T15:12:54;18.89;65.06
47757;SHT35;22147;52.388;13.390;2022-10-16T15:15:37;18.79;66.06
47757;SHT35;22147;52.388;13.390;2022-10-16T15:18:05;18.66;66.57
47757;SHT35;22147;52.388;13.390;2022-10-16T15:20:39;18.57;67.27
47757;SHT35;22147;52.388;13.390;2022-10-16T15:23:16;18.39;68.13
47757;SHT35;22147;52.388;13.390;2022-10-16T15:25:53;18.22;68.24
47757;SHT35;22147;52.388;13.390;2022-10-16T15:28:24;18.10;68.32
47757;SHT35;22147;52.388;13.390;2022-10-16T15:30:55;17.96;68.54
47757;SHT35;22147;52.388;13.390;2022-10-16T15:33:27;17.88;69.09
47757;SHT35;22147;52.388;13.390;2022-10-16T15:36:05;17.80;69.25
47757;SHT35;22147;52.388;13.390;2022-10-16T15:38:32;17.71;70.65
47757;SHT35;22147;52.388;13.390;2022-10-16T15:40:59;17.55;72.28
47757;SHT35;22147;52.388;13.390;2022-10-16T15:43:26;17.27;72.64
47757;SHT35;22147;52.388;13.390;2022-10-16T15:46:08;17.12;73.39
47757;SHT35;22147;52.388;13.390;2022-10-16T15:48:36;16.91;74.38
47757;SHT35;22147;52.388;13.390;2022-10-16T15:51:08;16.76;75.18
47757;SHT35;22147;52.388;13.390;2022-10-16T15:53:36;16.60;75.94
47757;SHT35;22147;52.388;13.390;2022-10-16T15:56:06;16.47;76.22
47757;SHT35;22147;52.388;13.390;2022-10-16T15:58:33;16.36;76.85
47757;SHT35;22147;52.388;13.390;2022-10-16T16:01:02;16.29;77.37
47757;SHT35;22147;52.388;13.390;2022-10-16T16:03:32;16.06;78.04
47757;SHT35;22147;52.388;13.390;2022-10-16T16:06:09;16.01;78.19
47757;SHT35;22147;52.388;13.390;2022-10-16T16:08:38;15.85;78.77
47757;SHT35;22147;52.388;13.390;2022-10-16T16:11:10;15.79;79.06
47757;SHT35;22147;52.388;13.390;2022-10-16T16:13:38;15.64;79.72
47757;SHT35;22147;52.388;13.390;2022-10-16T16:16:11;15.61;80.02
47757;SHT35;22147;52.388;13.390;2022-10-16T16:18:41;15.53;80.16
47757;SHT35;22147;52.388;13.390;2022-10-16T16:21:12;15.47;80.50
47757;SHT35;22147;52.388;13.390;2022-10-16T16:23:39;15.42;80.73
47757;SHT35;22147;52.388;13.390;2022-10-16T16:26:29;15.30;81.06
47757;SHT35;22147;52.388;13.390;2022-10-16T16:29:04;15.16;81.42
47757;SHT35;22147;52.388;13.390;2022-10-16T16:31:32;15.09;81.65
47757;SHT35;22147;52.388;13.390;2022-10-16T16:34:00;15.03;81.84
47757;SHT35;22147;52.388;13.390;2022-10-16T16:36:27;14.96;81.94
47757;SHT35;22147;52.388;13.390;2022-10-16T16:38:54;14.86;81.90
47757;SHT35;22147;52.388;13.390;2022-10-16T16:41:29;14.85;82.26
47757;SHT35;22147;52.388;13.390;2022-10-16T16:44:08;14.78;82.35
47757;SHT35;22147;52.388;13.390;2022-10-16T16:46:38;14.72;82.40
47757;SHT35;22147;52.388;13.390;2022-10-16T16:49:07;14.64;82.52
47757;SHT35;22147;52.388;13.390;2022-10-16T16:51:34;14.60;82.75
47757;SHT35;22147;52.388;13.390;2022-10-16T16:54:06;14.54;82.90
47757;SHT35;22147;52.388;13.390;2022-10-16T16:56:36;14.45;83.06
47757;SHT35;22147;52.388;13.390;2022-10-16T16:59:03;14.40;83.21
47757;SHT35;22147;52.388;13.390;2022-10-16T17:01:31;14.36;83.29
47757;SHT35;22147;52.388;13.390;2022-10-16T17:03:58;14.30;83.54
47757;SHT35;22147;52.388;13.390;2022-10-16T17:06:29;14.24;83.67
47757;SHT35;22147;52.388;13.390;2022-10-16T17:08:58;14.17;83.72
47757;SHT35;22147;52.388;13.390;2022-10-16T17:11:27;14.13;83.98
47757;SHT35;22147;52.388;13.390;2022-10-16T17:13:57;14.05;84.06
47757;SHT35;22147;52.388;13.390;2022-10-16T17:16:35;14.07;84.57
47757;SHT35;22147;52.388;13.390;2022-10-16T17:19:12;14.06;84.43
47757;SHT35;22147;52.388;13.390;2022-10-16T17:21:40;14.03;84.17
47757;SHT35;22147;52.388;13.390;2022-10-16T17:24:08;13.95;84.08
47757;SHT35;22147;52.388;13.390;2022-10-16T17:26:37;13.89;84.20
47757;SHT35;22147;52.388;13.390;2022-10-16T17:29:05;13.82;84.16
47757;SHT35;22147;52.388;13.390;2022-10-16T17:31:35;13.75;84.24
47757;SHT35;22147;52.388;13.390;2022-10-16T17:34:08;13.70;84.69
47757;SHT35;22147;52.388;13.390;2022-10-16T17:36:39;13.68;84.89
47757;SHT35;22147;52.388;13.390;2022-10-16T17:39:14;13.66;84.83
47757;SHT35;22147;52.388;13.390;2022-10-16T17:41:46;13.68;84.70
47757;SHT35;22147;52.388;13.390;2022-10-16T17:44:14;13.68;84.67
47757;SHT35;22147;52.388;13.390;2022-10-16T17:46:50;13.61;84.26
47757;SHT35;22147;52.388;13.390;2022-10-16T17:49:18;13.57;84.57